sensor_id;sensor_type;location;lat;lon;timestamp;P1;durP1;ratioP1;P2;durP2;ratioP2
2338;SDS011;1180;51.438;6.978;2024-01-30T00:00:20;8.07;;;6.00;;
2338;SDS011;1180;51.438;6.978;2024-01-30T00:02:46;9.10;;;6.00;;
2338;SDS011;1180;51.438;6.978;2024-01-30T00:05:11;8.37;;;6.30;;
2338;SDS011;1180;51.438;6.978;2024-01-30T00:07:37;6.10;;;4.90;;
2338;SDS011;1180;51.438;6.978;2024-01-30T00:10:02;7.90;;;5.77;;
2338;SDS011;1180;51.438;6.978;2024-01-30T00:12:28;5.80;;;5.20;;
2338;SDS011;1180;51.438;6.978;2024-01-30T00:14:53;6.67;;;5.63;;
2338;SDS011;1180;51.438;6.978;2024-01-30T00:17:19;8.00;;;6.13;;
2338;SDS011;1180;51.438;6.978;2024-01-30T00:19:45;8.10;;;6.50;;
2338;SDS011;1180;51.438;6.978;2024-01-30T00:22:11;6.67;;;5.60;;
2338;SDS011;1180;51.438;6.978;2024-01-30T00:24:36;9.40;;;5.90;;
2338;SDS011;1180;51.438;6.978;2024-01-30T00:27:01;9.73;;;6.63;;
2338;SDS011;1180;51.438;6.978;2024-01-30T00:29:27;6.07;;;4.80;;
2338;SDS011;1180;51.438;6.978;2024-01-30T00:31:55;6.80;;;5.90;;
2338;SDS011;1180;51.438;6.978;2024-01-30T00:34:21;7.63;;;5.13;;
2338;SDS011;1180;51.438;6.978;2024-01-30T00:36:46;7.50;;;6.17;;
2338;SDS011;1180;51.438;6.978;2024-01-30T00:39:12;9.03;;;6.43;;
2338;SDS011;1180;51.438;6.978;2024-01-30T00:41:37;6.63;;;5.60;;
2338;SDS011;1180;51.438;6.978;2024-01-30T00:44:03;8.57;;;5.77;;
2338;SDS011;1180;51.438;6.978;2024-01-30T00:46:28;7.60;;;6.00;;
2338;SDS011;1180;51.438;6.978;2024-01-30T00:48:54;11.53;;;6.50;;
2338;SDS011;1180;51.438;6.978;2024-01-30T00:51:19;6.10;;;5.20;;
2338;SDS011;1180;51.438;6.978;2024-01-30T00:53:44;7.60;;;6.07;;
2338;SDS011;1180;51.438;6.978;2024-01-30T00:56:10;5.83;;;5.33;;
2338;SDS011;1180;51.438;6.978;2024-01-30T00:58:36;7.20;;;5.70;;
2338;SDS011;1180;51.438;6.978;2024-01-30T01:01:01;7.13;;;5.37;;
2338;SDS011;1180;51.438;6.978;2024-01-30T01:03:27;7.50;;;6.03;;
2338;SDS011;1180;51.438;6.978;2024-01-30T01:05:52;7.87;;;6.10;;
2338;SDS011;1180;51.438;6.978;2024-01-30T01:08:18;9.30;;;5.57;;
2338;SDS011;1180;51.438;6.978;2024-01-30T01:10:43;7.73;;;5.33;;
2338;SDS011;1180;51.438;6.978;2024-01-30T01:13:08;7.80;;;5.77;;
2338;SDS011;1180;51.438;6.978;2024-01-30T01:15:34;9.30;;;5.50;;
2338;SDS011;1180;51.438;6.978;2024-01-30T01:18:00;8.33;;;5.70;;
2338;SDS011;1180;51.438;6.978;2024-01-30T01:20:25;7.07;;;5.83;;
2338;SDS011;1180;51.438;6.978;2024-01-30T01:22:50;6.87;;;6.17;;
2338;SDS011;1180;51.438;6.978;2024-01-30T01:25:17;6.80;;;5.50;;
2338;SDS011;1180;51.438;6.978;2024-01-30T01:27:42;8.70;;;5.60;;
2338;SDS011;1180;51.438;6.978;2024-01-30T01:30:09;7.53;;;5.23;;
2338;SDS011;1180;51.438;6.978;2024-01-30T01:32:36;8.90;;;5.90;;
2338;SDS011;1180;51.438;6.978;2024-01-30T01:35:01;7.30;;;6.37;;
2338;SDS011;1180;51.438;6.978;2024-01-30T01:37:27;6.80;;;6.00;;
2338;SDS011;1180;51.438;6.978;2024-01-30T01:39:53;9.07;;;6.77;;
2338;SDS011;1180;51.438;6.978;2024-01-30T01:42:18;7.57;;;5.90;;
2338;SDS011;1180;51.438;6.978;2024-01-30T01:44:43;9.77;;;6.70;;
2338;SDS011;1180;51.438;6.978;2024-01-30T01:47:09;7.63;;;5.57;;
2338;SDS011;1180;51.438;6.978;2024-01-30T01:49:34;7.87;;;6.43;;
2338;SDS011;1180;51.438;6.978;2024-01-30T01:52:00;9.97;;;6.20;;
2338;SDS011;1180;51.438;6.978;2024-01-30T01:54:26;6.10;;;5.43;;
2338;SDS011;1180;51.438;6.978;2024-01-30T01:56:53;7.10;;;6.13;;
2338;SDS011;1180;51.438;6.978;2024-01-30T01:59:19;9.23;;;7.10;;
2338;SDS011;1180;51.438;6.978;2024-01-30T02:01:45;10.87;;;6.00;;
2338;SDS011;1180;51.438;6.978;2024-01-30T02:04:14;7.20;;;6.50;;
2338;SDS011;1180;51.438;6.978;2024-01-30T02:06:39;6.80;;;5.53;;
2338;SDS011;1180;51.438;6.978;2024-01-30T02:09:05;11.13;;;6.77;;
2338;SDS011;1180;51.438;6.978;2024-01-30T02:11:30;8.70;;;6.17;;
2338;SDS011;1180;51.438;6.978;2024-01-30T02:13:56;6.80;;;5.83;;
2338;SDS011;1180;51.438;6.978;2024-01-30T02:16:22;6.87;;;5.90;;
2338;SDS011;1180;51.438;6.978;2024-01-30T02:18:47;6.97;;;6.27;;
2338;SDS011;1180;51.438;6.978;2024-01-30T02:21:16;7.07;;;6.37;;
2338;SDS011;1180;51.438;6.978;2024-01-30T02:23:43;7.43;;;5.63;;
2338;SDS011;1180;51.438;6.978;2024-01-30T02:26:09;8.63;;;6.23;;
2338;SDS011;1180;51.438;6.978;2024-01-30T02:28:34;8.40;;;6.23;;
2338;SDS011;1180;51.438;6.978;2024-01-30T02:31:00;8.13;;;6.33;;
2338;SDS011;1180;51.438;6.978;2024-01-30T02:33:25;8.70;;;6.57;;
2338;SDS011;1180;51.438;6.978;2024-01-30T02:35:50;5.87;;;5.27;;
2338;SDS011;1180;51.438;6.978;2024-01-30T02:38:16;9.20;;;6.50;;
2338;SDS011;1180;51.438;6.978;2024-01-30T02:40:41;6.97;;;6.17;;
2338;SDS011;1180;51.438;6.978;2024-01-30T02:43:07;7.77;;;5.10;;
2338;SDS011;1180;51.438;6.978;2024-01-30T02:45:32;7.50;;;5.97;;
2338;SDS011;1180;51.438;6.978;2024-01-30T02:47:58;6.00;;;5.40;;
2338;SDS011;1180;51.438;6.978;2024-01-30T02:50:23;7.40;;;6.30;;
2338;SDS011;1180;51.438;6.978;2024-01-30T02:52:48;12.03;;;6.60;;
2338;SDS011;1180;51.438;6.978;2024-01-30T02:55:14;6.60;;;5.93;;
2338;SDS011;1180;51.438;6.978;2024-01-30T02:57:42;8.83;;;6.13;;
2338;SDS011;1180;51.438;6.978;2024-01-30T03:00:08;7.10;;;5.50;;
2338;SDS011;1180;51.438;6.978;2024-01-30T03:02:34;6.00;;;5.40;;
2338;SDS011;1180;51.438;6.978;2024-01-30T03:05:00;7.07;;;5.40;;
2338;SDS011;1180;51.438;6.978;2024-01-30T03:07:27;7.03;;;5.50;;
2338;SDS011;1180;51.438;6.978;2024-01-30T03:09:52;7.40;;;5.30;;
2338;SDS011;1180;51.438;6.978;2024-01-30T03:12:20;8.53;;;5.00;;
2338;SDS011;1180;51.438;6.978;2024-01-30T03:14:45;9.83;;;5.30;;
2338;SDS011;1180;51.438;6.978;2024-01-30T03:17:11;7.10;;;6.30;;
2338;SDS011;1180;51.438;6.978;2024-01-30T03:19:36;6.03;;;5.40;;
2338;SDS011;1180;51.438;6.978;2024-01-30T03:22:01;6.03;;;5.20;;
2338;SDS011;1180;51.438;6.978;2024-01-30T03:24:27;6.90;;;5.20;;
2338;SDS011;1180;51.438;6.978;2024-01-30T03:26:53;6.23;;;5.37;;
2338;SDS011;1180;51.438;6.978;2024-01-30T03:29:18;6.97;;;5.47;;
2338;SDS011;1180;51.438;6.978;2024-01-30T03:31:43;5.73;;;5.10;;
2338;SDS011;1180;51.438;6.978;2024-01-30T03:34:09;8.50;;;6.33;;
2338;SDS011;1180;51.438;6.978;2024-01-30T03:36:34;5.30;;;4.80;;
2338;SDS011;1180;51.438;6.978;2024-01-30T03:39:00;6.10;;;5.33;;
2338;SDS011;1180;51.438;6.978;2024-01-30T03:41:26;9.30;;;6.07;;
2338;SDS011;1180;51.438;6.978;2024-01-30T03:43:52;5.63;;;5.03;;
2338;SDS011;1180;51.438;6.978;2024-01-30T03:46:17;6.40;;;5.07;;
2338;SDS011;1180;51.438;6.978;2024-01-30T03:48:43;6.93;;;5.03;;
2338;SDS011;1180;51.438;6.978;2024-01-30T03:51:08;5.27;;;4.77;;
2338;SDS011;1180;51.438;6.978;2024-01-30T03:53:39;7.90;;;5.20;;
2338;SDS011;1180;51.438;6.978;2024-01-30T03:56:04;5.63;;;4.87;;
2338;SDS011;1180;51.438;6.978;2024-01-30T03:58:30;6.17;;;5.10;;
2338;SDS011;1180;51.438;6.978;2024-01-30T04:00:55;7.53;;;5.60;;
2338;SDS011;1180;51.438;6.978;2024-01-30T04:03:21;7.20;;;4.60;;
2338;SDS011;1180;51.438;6.978;2024-01-30T04:05:46;7.33;;;5.23;;
2338;SDS011;1180;51.438;6.978;2024-01-30T04:08:11;7.90;;;5.73;;
2338;SDS011;1180;51.438;6.978;2024-01-30T04:10:37;8.23;;;6.00;;
2338;SDS011;1180;51.438;6.978;2024-01-30T04:13:02;5.83;;;4.77;;
2338;SDS011;1180;51.438;6.978;2024-01-30T04:15:28;7.60;;;5.27;;
2338;SDS011;1180;51.438;6.978;2024-01-30T04:17:56;6.93;;;6.07;;
2338;SDS011;1180;51.438;6.978;2024-01-30T04:20:22;8.00;;;5.30;;
2338;SDS011;1180;51.438;6.978;2024-01-30T04:22:48;7.93;;;5.90;;
2338;SDS011;1180;51.438;6.978;2024-01-30T04:25:13;7.30;;;6.60;;
2338;SDS011;1180;51.438;6.978;2024-01-30T04:27:39;13.40;;;11.50;;
2338;SDS011;1180;51.438;6.978;2024-01-30T04:30:04;8.20;;;7.40;;
2338;SDS011;1180;51.438;6.978;2024-01-30T04:32:31;11.67;;;10.57;;
2338;SDS011;1180;51.438;6.978;2024-01-30T04:34:57;15.50;;;10.40;;
2338;SDS011;1180;51.438;6.978;2024-01-30T04:37:22;13.77;;;12.03;;
2338;SDS011;1180;51.438;6.978;2024-01-30T04:39:48;13.33;;;10.70;;
2338;SDS011;1180;51.438;6.978;2024-01-30T04:42:13;14.30;;;12.80;;
2338;SDS011;1180;51.438;6.978;2024-01-30T04:44:39;18.40;;;12.83;;
2338;SDS011;1180;51.438;6.978;2024-01-30T04:47:04;14.83;;;12.67;;
2338;SDS011;1180;51.438;6.978;2024-01-30T04:49:31;16.70;;;12.13;;
2338;SDS011;1180;51.438;6.978;2024-01-30T04:51:56;15.33;;;11.60;;
2338;SDS011;1180;51.438;6.978;2024-01-30T04:54:22;16.13;;;11.53;;
2338;SDS011;1180;51.438;6.978;2024-01-30T04:56:48;14.60;;;11.33;;
2338;SDS011;1180;51.438;6.978;2024-01-30T04:59:13;14.60;;;10.77;;
2338;SDS011;1180;51.438;6.978;2024-01-30T05:01:39;9.80;;;8.57;;
2338;SDS011;1180;51.438;6.978;2024-01-30T05:04:06;9.50;;;8.23;;
2338;SDS011;1180;51.438;6.978;2024-01-30T05:06:32;9.90;;;7.63;;
2338;SDS011;1180;51.438;6.978;2024-01-30T05:08:58;12.63;;;7.97;;
2338;SDS011;1180;51.438;6.978;2024-01-30T05:11:23;10.07;;;7.67;;
2338;SDS011;1180;51.438;6.978;2024-01-30T05:13:48;9.63;;;7.53;;
2338;SDS011;1180;51.438;6.978;2024-01-30T05:16:14;9.60;;;7.10;;
2338;SDS011;1180;51.438;6.978;2024-01-30T05:18:39;10.50;;;7.60;;
2338;SDS011;1180;51.438;6.978;2024-01-30T05:21:05;9.10;;;7.23;;
2338;SDS011;1180;51.438;6.978;2024-01-30T05:23:30;11.07;;;7.07;;
2338;SDS011;1180;51.438;6.978;2024-01-30T05:25:56;8.43;;;6.63;;
2338;SDS011;1180;51.438;6.978;2024-01-30T05:28:21;8.23;;;6.63;;
2338;SDS011;1180;51.438;6.978;2024-01-30T05:30:46;7.20;;;6.43;;
2338;SDS011;1180;51.438;6.978;2024-01-30T05:33:12;7.53;;;6.80;;
2338;SDS011;1180;51.438;6.978;2024-01-30T05:35:38;7.33;;;5.77;;
2338;SDS011;1180;51.438;6.978;2024-01-30T05:38:04;7.10;;;6.07;;
2338;SDS011;1180;51.438;6.978;2024-01-30T05:40:29;6.17;;;5.57;;
2338;SDS011;1180;51.438;6.978;2024-01-30T05:42:55;7.10;;;6.37;;
2338;SDS011;1180;51.438;6.978;2024-01-30T05:45:21;8.67;;;6.83;;
2338;SDS011;1180;51.438;6.978;2024-01-30T05:47:48;6.47;;;5.87;;
2338;SDS011;1180;51.438;6.978;2024-01-30T05:50:13;7.07;;;6.37;;
2338;SDS011;1180;51.438;6.978;2024-01-30T05:52:39;9.50;;;6.33;;
2338;SDS011;1180;51.438;6.978;2024-01-30T05:55:04;6.97;;;5.80;;
2338;SDS011;1180;51.438;6.978;2024-01-30T05:57:30;9.83;;;6.73;;
2338;SDS011;1180;51.438;6.978;2024-01-30T05:59:55;7.10;;;6.40;;
2338;SDS011;1180;51.438;6.978;2024-01-30T06:02:21;6.80;;;5.77;;
2338;SDS011;1180;51.438;6.978;2024-01-30T06:04:46;10.40;;;6.80;;
2338;SDS011;1180;51.438;6.978;2024-01-30T06:07:12;9.40;;;6.57;;
2338;SDS011;1180;51.438;6.978;2024-01-30T06:09:37;6.60;;;5.63;;
2338;SDS011;1180;51.438;6.978;2024-01-30T06:12:03;7.00;;;6.13;;
2338;SDS011;1180;51.438;6.978;2024-01-30T06:14:30;8.07;;;6.07;;
2338;SDS011;1180;51.438;6.978;2024-01-30T06:16:55;10.10;;;5.73;;
2338;SDS011;1180;51.438;6.978;2024-01-30T06:19:21;7.50;;;5.30;;
2338;SDS011;1180;51.438;6.978;2024-01-30T06:21:46;10.90;;;6.80;;
2338;SDS011;1180;51.438;6.978;2024-01-30T06:24:11;5.97;;;5.47;;
2338;SDS011;1180;51.438;6.978;2024-01-30T06:26:37;7.77;;;5.60;;
2338;SDS011;1180;51.438;6.978;2024-01-30T06:29:02;6.93;;;5.50;;
2338;SDS011;1180;51.438;6.978;2024-01-30T06:31:28;7.57;;;5.40;;
2338;SDS011;1180;51.438;6.978;2024-01-30T06:33:53;6.10;;;5.50;;
2338;SDS011;1180;51.438;6.978;2024-01-30T06:36:19;6.13;;;5.60;;
2338;SDS011;1180;51.438;6.978;2024-01-30T06:38:44;7.10;;;5.83;;
2338;SDS011;1180;51.438;6.978;2024-01-30T06:41:09;7.57;;;5.97;;
2338;SDS011;1180;51.438;6.978;2024-01-30T06:43:35;6.73;;;4.97;;
2338;SDS011;1180;51.438;6.978;2024-01-30T06:46:00;8.80;;;5.47;;
2338;SDS011;1180;51.438;6.978;2024-01-30T06:48:25;6.70;;;5.47;;
2338;SDS011;1180;51.438;6.978;2024-01-30T06:50:54;8.17;;;6.47;;
2338;SDS011;1180;51.438;6.978;2024-01-30T06:53:19;7.30;;;6.30;;
2338;SDS011;1180;51.438;6.978;2024-01-30T06:55:45;6.13;;;5.53;;
2338;SDS011;1180;51.438;6.978;2024-01-30T06:58:10;9.63;;;5.80;;
2338;SDS011;1180;51.438;6.978;2024-01-30T07:00:35;6.37;;;5.30;;
2338;SDS011;1180;51.438;6.978;2024-01-30T07:03:01;5.27;;;4.33;;
2338;SDS011;1180;51.438;6.978;2024-01-30T07:05:26;6.50;;;5.30;;
2338;SDS011;1180;51.438;6.978;2024-01-30T07:07:52;5.70;;;4.50;;
2338;SDS011;1180;51.438;6.978;2024-01-30T07:10:17;7.20;;;4.80;;
2338;SDS011;1180;51.438;6.978;2024-01-30T07:12:43;8.07;;;4.63;;
2338;SDS011;1180;51.438;6.978;2024-01-30T07:15:08;6.13;;;5.10;;
2338;SDS011;1180;51.438;6.978;2024-01-30T07:17:35;6.70;;;5.40;;
2338;SDS011;1180;51.438;6.978;2024-01-30T07:20:00;6.20;;;5.07;;
2338;SDS011;1180;51.438;6.978;2024-01-30T07:22:28;7.33;;;5.97;;
2338;SDS011;1180;51.438;6.978;2024-01-30T07:24:55;5.87;;;4.60;;
2338;SDS011;1180;51.438;6.978;2024-01-30T07:27:20;5.80;;;5.20;;
2338;SDS011;1180;51.438;6.978;2024-01-30T07:29:46;11.83;;;5.93;;
2338;SDS011;1180;51.438;6.978;2024-01-30T07:32:14;8.03;;;5.87;;
2338;SDS011;1180;51.438;6.978;2024-01-30T07:34:39;6.17;;;5.27;;
2338;SDS011;1180;51.438;6.978;2024-01-30T07:37:05;6.17;;;4.87;;
2338;SDS011;1180;51.438;6.978;2024-01-30T07:39:30;8.83;;;5.43;;
2338;SDS011;1180;51.438;6.978;2024-01-30T07:41:55;7.83;;;5.10;;
2338;SDS011;1180;51.438;6.978;2024-01-30T07:44:21;7.00;;;6.03;;
2338;SDS011;1180;51.438;6.978;2024-01-30T07:46:47;5.83;;;5.10;;
2338;SDS011;1180;51.438;6.978;2024-01-30T07:49:12;5.20;;;4.70;;
2338;SDS011;1180;51.438;6.978;2024-01-30T07:51:39;8.17;;;5.30;;
2338;SDS011;1180;51.438;6.978;2024-01-30T07:54:13;6.73;;;5.60;;
2338;SDS011;1180;51.438;6.978;2024-01-30T07:56:39;9.17;;;5.87;;
2338;SDS011;1180;51.438;6.978;2024-01-30T07:59:04;6.47;;;5.13;;
2338;SDS011;1180;51.438;6.978;2024-01-30T08:01:29;10.73;;;6.73;;
2338;SDS011;1180;51.438;6.978;2024-01-30T08:03:55;7.77;;;5.63;;
2338;SDS011;1180;51.438;6.978;2024-01-30T08:06:20;6.63;;;5.90;;
2338;SDS011;1180;51.438;6.978;2024-01-30T08:08:45;6.43;;;5.67;;
2338;SDS011;1180;51.438;6.978;2024-01-30T08:11:11;5.47;;;4.97;;
2338;SDS011;1180;51.438;6.978;2024-01-30T08:13:37;8.70;;;5.47;;
2338;SDS011;1180;51.438;6.978;2024-01-30T08:16:02;6.83;;;5.30;;
2338;SDS011;1180;51.438;6.978;2024-01-30T08:18:28;7.17;;;5.87;;
2338;SDS011;1180;51.438;6.978;2024-01-30T08:20:53;7.27;;;6.37;;
2338;SDS011;1180;51.438;6.978;2024-01-30T08:23:18;6.40;;;5.90;;
2338;SDS011;1180;51.438;6.978;2024-01-30T08:25:44;7.50;;;5.77;;
2338;SDS011;1180;51.438;6.978;2024-01-30T08:28:09;6.17;;;5.57;;
2338;SDS011;1180;51.438;6.978;2024-01-30T08:30:34;6.40;;;5.50;;
2338;SDS011;1180;51.438;6.978;2024-01-30T08:33:00;5.90;;;5.27;;
2338;SDS011;1180;51.438;6.978;2024-01-30T08:35:26;6.97;;;5.27;;
2338;SDS011;1180;51.438;6.978;2024-01-30T08:37:51;7.47;;;6.40;;
2338;SDS011;1180;51.438;6.978;2024-01-30T08:40:16;7.80;;;6.00;;
2338;SDS011;1180;51.438;6.978;2024-01-30T08:42:42;7.10;;;5.20;;
2338;SDS011;1180;51.438;6.978;2024-01-30T08:45:07;7.93;;;6.50;;
2338;SDS011;1180;51.438;6.978;2024-01-30T08:47:34;8.83;;;6.37;;
2338;SDS011;1180;51.438;6.978;2024-01-30T08:49:59;7.90;;;6.10;;
2338;SDS011;1180;51.438;6.978;2024-01-30T08:52:24;7.80;;;5.50;;
2338;SDS011;1180;51.438;6.978;2024-01-30T08:54:50;6.77;;;5.43;;
2338;SDS011;1180;51.438;6.978;2024-01-30T08:57:15;7.50;;;5.40;;
2338;SDS011;1180;51.438;6.978;2024-01-30T08:59:40;7.73;;;5.37;;
2338;SDS011;1180;51.438;6.978;2024-01-30T09:02:06;7.50;;;6.50;;
2338;SDS011;1180;51.438;6.978;2024-01-30T09:04:31;6.77;;;6.00;;
2338;SDS011;1180;51.438;6.978;2024-01-30T09:06:57;6.90;;;4.50;;
2338;SDS011;1180;51.438;6.978;2024-01-30T09:09:22;6.60;;;5.60;;
2338;SDS011;1180;51.438;6.978;2024-01-30T09:11:47;8.30;;;6.23;;
2338;SDS011;1180;51.438;6.978;2024-01-30T09:14:13;7.30;;;6.23;;
2338;SDS011;1180;51.438;6.978;2024-01-30T09:16:39;6.40;;;5.40;;
2338;SDS011;1180;51.438;6.978;2024-01-30T09:19:04;7.20;;;5.20;;
2338;SDS011;1180;51.438;6.978;2024-01-30T09:21:30;5.50;;;4.93;;
2338;SDS011;1180;51.438;6.978;2024-01-30T09:23:55;8.20;;;5.70;;
2338;SDS011;1180;51.438;6.978;2024-01-30T09:26:27;7.23;;;4.67;;
2338;SDS011;1180;51.438;6.978;2024-01-30T09:28:52;5.70;;;5.10;;
2338;SDS011;1180;51.438;6.978;2024-01-30T09:31:17;8.60;;;5.10;;
2338;SDS011;1180;51.438;6.978;2024-01-30T09:33:43;5.80;;;4.53;;
2338;SDS011;1180;51.438;6.978;2024-01-30T09:36:11;5.00;;;4.50;;
2338;SDS011;1180;51.438;6.978;2024-01-30T09:38:36;19.33;;;6.10;;
2338;SDS011;1180;51.438;6.978;2024-01-30T09:41:03;6.93;;;5.50;;
2338;SDS011;1180;51.438;6.978;2024-01-30T09:43:36;6.73;;;4.70;;
2338;SDS011;1180;51.438;6.978;2024-01-30T09:46:03;7.73;;;4.70;;
2338;SDS011;1180;51.438;6.978;2024-01-30T09:48:30;6.50;;;4.60;;
2338;SDS011;1180;51.438;6.978;2024-01-30T09:50:57;5.63;;;5.03;;
2338;SDS011;1180;51.438;6.978;2024-01-30T09:53:22;5.13;;;4.73;;
2338;SDS011;1180;51.438;6.978;2024-01-30T09:55:48;7.33;;;5.37;;
2338;SDS011;1180;51.438;6.978;2024-01-30T09:58:15;6.80;;;5.00;;
2338;SDS011;1180;51.438;6.978;2024-01-30T10:00:41;5.10;;;4.60;;
2338;SDS011;1180;51.438;6.978;2024-01-30T10:03:06;7.23;;;5.00;;
2338;SDS011;1180;51.438;6.978;2024-01-30T10:05:31;5.27;;;4.43;;
2338;SDS011;1180;51.438;6.978;2024-01-30T10:07:59;5.50;;;4.50;;
2338;SDS011;1180;51.438;6.978;2024-01-30T10:10:25;5.37;;;4.80;;
2338;SDS011;1180;51.438;6.978;2024-01-30T10:12:51;5.57;;;5.07;;
2338;SDS011;1180;51.438;6.978;2024-01-30T10:15:17;7.53;;;4.53;;
2338;SDS011;1180;51.438;6.978;2024-01-30T10:17:43;7.97;;;4.83;;
2338;SDS011;1180;51.438;6.978;2024-01-30T10:20:10;8.87;;;4.17;;
2338;SDS011;1180;51.438;6.978;2024-01-30T10:22:35;6.77;;;5.03;;
2338;SDS011;1180;51.438;6.978;2024-01-30T10:25:01;6.80;;;5.87;;
2338;SDS011;1180;51.438;6.978;2024-01-30T10:27:26;5.47;;;4.97;;
2338;SDS011;1180;51.438;6.978;2024-01-30T10:29:52;7.23;;;4.77;;
2338;SDS011;1180;51.438;6.978;2024-01-30T10:32:17;11.70;;;5.10;;
2338;SDS011;1180;51.438;6.978;2024-01-30T10:34:44;7.17;;;6.47;;
2338;SDS011;1180;51.438;6.978;2024-01-30T10:37:10;5.83;;;5.00;;
2338;SDS011;1180;51.438;6.978;2024-01-30T10:39:42;5.50;;;4.30;;
2338;SDS011;1180;51.438;6.978;2024-01-30T10:42:17;6.50;;;4.60;;
2338;SDS011;1180;51.438;6.978;2024-01-30T10:47:18;6.70;;;4.50;;
2338;SDS011;1180;51.438;6.978;2024-01-30T10:49:50;8.57;;;5.80;;
2338;SDS011;1180;51.438;6.978;2024-01-30T10:52:17;6.37;;;5.60;;
2338;SDS011;1180;51.438;6.978;2024-01-30T10:54:44;6.60;;;5.43;;
2338;SDS011;1180;51.438;6.978;2024-01-30T10:57:10;5.83;;;4.83;;
2338;SDS011;1180;51.438;6.978;2024-01-30T10:59:37;5.83;;;4.73;;
2338;SDS011;1180;51.438;6.978;2024-01-30T11:02:03;7.87;;;5.43;;
2338;SDS011;1180;51.438;6.978;2024-01-30T11:04:36;9.17;;;5.17;;
2338;SDS011;1180;51.438;6.978;2024-01-30T11:07:02;9.47;;;6.20;;
2338;SDS011;1180;51.438;6.978;2024-01-30T11:09:29;7.07;;;5.80;;
2338;SDS011;1180;51.438;6.978;2024-01-30T11:11:58;7.50;;;4.93;;
2338;SDS011;1180;51.438;6.978;2024-01-30T11:14:27;6.80;;;5.00;;
2338;SDS011;1180;51.438;6.978;2024-01-30T11:16:58;7.53;;;4.80;;
2338;SDS011;1180;51.438;6.978;2024-01-30T11:19:24;12.17;;;5.53;;
2338;SDS011;1180;51.438;6.978;2024-01-30T11:21:55;8.50;;;5.40;;
2338;SDS011;1180;51.438;6.978;2024-01-30T11:24:22;7.50;;;5.27;;
2338;SDS011;1180;51.438;6.978;2024-01-30T11:26:55;8.77;;;5.40;;
2338;SDS011;1180;51.438;6.978;2024-01-30T11:29:29;7.73;;;5.00;;
2338;SDS011;1180;51.438;6.978;2024-01-30T11:31:55;7.97;;;5.30;;
2338;SDS011;1180;51.438;6.978;2024-01-30T11:34:22;7.90;;;5.60;;
2338;SDS011;1180;51.438;6.978;2024-01-30T11:36:48;6.53;;;5.87;;
2338;SDS011;1180;51.438;6.978;2024-01-30T11:39:20;9.67;;;4.90;;
2338;SDS011;1180;51.438;6.978;2024-01-30T11:41:46;9.30;;;4.97;;
2338;SDS011;1180;51.438;6.978;2024-01-30T11:44:15;6.67;;;5.13;;
2338;SDS011;1180;51.438;6.978;2024-01-30T11:46:41;7.40;;;5.33;;
2338;SDS011;1180;51.438;6.978;2024-01-30T11:49:06;11.17;;;6.47;;
2338;SDS011;1180;51.438;6.978;2024-01-30T11:51:32;8.10;;;5.10;;
2338;SDS011;1180;51.438;6.978;2024-01-30T11:53:57;10.30;;;5.77;;
2338;SDS011;1180;51.438;6.978;2024-01-30T11:56:23;8.40;;;5.43;;
2338;SDS011;1180;51.438;6.978;2024-01-30T11:58:50;8.10;;;5.90;;
2338;SDS011;1180;51.438;6.978;2024-01-30T12:01:17;10.60;;;5.77;;
2338;SDS011;1180;51.438;6.978;2024-01-30T12:03:42;9.17;;;6.50;;
2338;SDS011;1180;51.438;6.978;2024-01-30T12:06:08;9.73;;;5.63;;
2338;SDS011;1180;51.438;6.978;2024-01-30T12:08:33;6.10;;;4.90;;
2338;SDS011;1180;51.438;6.978;2024-01-30T12:10:59;10.47;;;5.90;;
2338;SDS011;1180;51.438;6.978;2024-01-30T12:13:26;9.87;;;6.23;;
2338;SDS011;1180;51.438;6.978;2024-01-30T12:15:53;8.57;;;6.67;;
2338;SDS011;1180;51.438;6.978;2024-01-30T12:18:19;8.90;;;5.37;;
2338;SDS011;1180;51.438;6.978;2024-01-30T12:20:45;10.60;;;6.80;;
2338;SDS011;1180;51.438;6.978;2024-01-30T12:23:11;8.10;;;6.10;;
2338;SDS011;1180;51.438;6.978;2024-01-30T12:25:37;11.27;;;6.90;;
2338;SDS011;1180;51.438;6.978;2024-01-30T12:28:03;7.60;;;5.60;;
2338;SDS011;1180;51.438;6.978;2024-01-30T12:30:29;8.77;;;5.30;;
2338;SDS011;1180;51.438;6.978;2024-01-30T12:32:55;13.27;;;5.90;;
2338;SDS011;1180;51.438;6.978;2024-01-30T12:35:20;12.20;;;5.87;;
2338;SDS011;1180;51.438;6.978;2024-01-30T12:37:46;7.50;;;5.67;;
2338;SDS011;1180;51.438;6.978;2024-01-30T12:40:13;7.57;;;5.37;;
2338;SDS011;1180;51.438;6.978;2024-01-30T12:42:40;11.10;;;6.93;;
2338;SDS011;1180;51.438;6.978;2024-01-30T12:45:07;9.87;;;6.10;;
2338;SDS011;1180;51.438;6.978;2024-01-30T12:47:33;11.73;;;7.17;;
2338;SDS011;1180;51.438;6.978;2024-01-30T12:49:59;9.77;;;6.03;;
2338;SDS011;1180;51.438;6.978;2024-01-30T12:52:24;9.30;;;5.90;;
2338;SDS011;1180;51.438;6.978;2024-01-30T12:54:50;10.80;;;6.43;;
2338;SDS011;1180;51.438;6.978;2024-01-30T12:57:16;6.87;;;5.63;;
2338;SDS011;1180;51.438;6.978;2024-01-30T12:59:43;13.57;;;6.17;;
2338;SDS011;1180;51.438;6.978;2024-01-30T13:02:09;8.50;;;5.87;;
2338;SDS011;1180;51.438;6.978;2024-01-30T13:04:35;9.73;;;5.93;;
2338;SDS011;1180;51.438;6.978;2024-01-30T13:07:00;9.00;;;6.70;;
2338;SDS011;1180;51.438;6.978;2024-01-30T13:09:26;9.70;;;6.50;;
2338;SDS011;1180;51.438;6.978;2024-01-30T13:11:51;7.30;;;5.67;;
2338;SDS011;1180;51.438;6.978;2024-01-30T13:14:17;9.23;;;5.77;;
2338;SDS011;1180;51.438;6.978;2024-01-30T13:16:43;8.97;;;5.80;;
2338;SDS011;1180;51.438;6.978;2024-01-30T13:19:08;9.00;;;5.63;;
2338;SDS011;1180;51.438;6.978;2024-01-30T13:21:34;7.93;;;5.90;;
2338;SDS011;1180;51.438;6.978;2024-01-30T13:23:59;14.30;;;6.43;;
2338;SDS011;1180;51.438;6.978;2024-01-30T13:26:24;11.60;;;6.60;;
2338;SDS011;1180;51.438;6.978;2024-01-30T13:28:50;12.23;;;6.77;;
2338;SDS011;1180;51.438;6.978;2024-01-30T13:31:15;15.43;;;6.33;;
2338;SDS011;1180;51.438;6.978;2024-01-30T13:33:41;8.63;;;6.70;;
2338;SDS011;1180;51.438;6.978;2024-01-30T13:36:07;11.00;;;6.40;;
2338;SDS011;1180;51.438;6.978;2024-01-30T13:38:33;9.60;;;6.40;;
2338;SDS011;1180;51.438;6.978;2024-01-30T13:40:59;7.50;;;5.90;;
2338;SDS011;1180;51.438;6.978;2024-01-30T13:43:25;6.80;;;5.57;;
2338;SDS011;1180;51.438;6.978;2024-01-30T13:45:50;7.60;;;5.83;;
2338;SDS011;1180;51.438;6.978;2024-01-30T13:48:18;8.03;;;4.57;;
2338;SDS011;1180;51.438;6.978;2024-01-30T13:50:44;9.90;;;6.57;;
2338;SDS011;1180;51.438;6.978;2024-01-30T13:53:09;8.93;;;6.03;;
2338;SDS011;1180;51.438;6.978;2024-01-30T13:55:34;7.57;;;5.50;;
2338;SDS011;1180;51.438;6.978;2024-01-30T13:58:00;12.37;;;6.97;;
2338;SDS011;1180;51.438;6.978;2024-01-30T14:00:26;9.97;;;6.40;;
2338;SDS011;1180;51.438;6.978;2024-01-30T14:02:52;10.73;;;6.50;;
2338;SDS011;1180;51.438;6.978;2024-01-30T14:05:19;7.17;;;5.13;;
2338;SDS011;1180;51.438;6.978;2024-01-30T14:07:46;7.67;;;6.27;;
2338;SDS011;1180;51.438;6.978;2024-01-30T14:10:12;8.07;;;7.00;;
2338;SDS011;1180;51.438;6.978;2024-01-30T14:12:37;7.80;;;6.23;;
2338;SDS011;1180;51.438;6.978;2024-01-30T14:15:02;6.83;;;5.93;;
2338;SDS011;1180;51.438;6.978;2024-01-30T14:17:28;6.43;;;5.83;;
2338;SDS011;1180;51.438;6.978;2024-01-30T14:19:53;8.30;;;6.17;;
2338;SDS011;1180;51.438;6.978;2024-01-30T14:22:19;9.00;;;7.17;;
2338;SDS011;1180;51.438;6.978;2024-01-30T14:24:44;8.43;;;5.60;;
2338;SDS011;1180;51.438;6.978;2024-01-30T14:27:09;6.00;;;5.33;;
2338;SDS011;1180;51.438;6.978;2024-01-30T14:29:35;9.33;;;5.97;;
2338;SDS011;1180;51.438;6.978;2024-01-30T14:32:01;11.37;;;7.00;;
2338;SDS011;1180;51.438;6.978;2024-01-30T14:34:26;7.27;;;6.57;;
2338;SDS011;1180;51.438;6.978;2024-01-30T14:36:52;12.53;;;6.87;;
2338;SDS011;1180;51.438;6.978;2024-01-30T14:39:18;7.90;;;6.43;;
2338;SDS011;1180;51.438;6.978;2024-01-30T14:41:43;9.40;;;6.33;;
2338;SDS011;1180;51.438;6.978;2024-01-30T14:44:09;10.03;;;6.87;;
2338;SDS011;1180;51.438;6.978;2024-01-30T14:46:35;8.73;;;6.83;;
2338;SDS011;1180;51.438;6.978;2024-01-30T14:49:02;10.60;;;6.33;;
2338;SDS011;1180;51.438;6.978;2024-01-30T14:51:31;8.23;;;6.00;;
2338;SDS011;1180;51.438;6.978;2024-01-30T14:53:58;12.57;;;8.60;;
2338;SDS011;1180;51.438;6.978;2024-01-30T14:56:24;11.00;;;8.70;;
2338;SDS011;1180;51.438;6.978;2024-01-30T14:58:49;11.13;;;8.00;;
2338;SDS011;1180;51.438;6.978;2024-01-30T15:01:14;10.13;;;6.43;;
2338;SDS011;1180;51.438;6.978;2024-01-30T15:03:40;9.60;;;7.17;;
2338;SDS011;1180;51.438;6.978;2024-01-30T15:06:05;7.90;;;6.20;;